sensor_id;sensor_type;location;lat;lon;timestamp;temperature;humidity
52575;DHT22;38468;48.114;-1.684;2022-12-11T00:01:58;1.70;73.90
52575;DHT22;38468;48.114;-1.684;2022-12-11T00:03:58;1.70;73.70
52575;DHT22;38468;48.114;-1.684;2022-12-11T00:05:59;1.80;73.50
52575;DHT22;38468;48.114;-1.684;2022-12-11T00:08:03;1.70;73.40
52575;DHT22;38468;48.114;-1.684;2022-12-11T00:10:05;1.60;73.70
52575;DHT22;38468;48.114;-1.684;2022-12-11T00:12:06;1.50;73.80
52575;DHT22;38468;48.114;-1.684;2022-12-11T00:14:06;1.40;74.40
52575;DHT22;38468;48.114;-1.684;2022-12-11T00:16:07;1.40;74.40
52575;DHT22;38468;48.114;-1.684;2022-12-11T00:18:11;1.40;74.20
52575;DHT22;38468;48.114;-1.684;2022-12-11T00:20:13;1.40;74.50
52575;DHT22;38468;48.114;-1.684;2022-12-11T00:22:13;1.40;74.20
52575;DHT22;38468;48.114;-1.684;2022-12-11T00:24:14;1.40;74.50
52575;DHT22;38468;48.114;-1.684;2022-12-11T00:26:15;1.50;74.40
52575;DHT22;38468;48.114;-1.684;2022-12-11T00:28:16;1.60;74.20
52575;DHT22;38468;48.114;-1.684;2022-12-11T00:30:19;1.60;74.10
52575;DHT22;38468;48.114;-1.684;2022-12-11T00:32:20;1.60;74.10
52575;DHT22;38468;48.114;-1.684;2022-12-11T00:34:21;1.50;74.10
52575;DHT22;38468;48.114;-1.684;2022-12-11T00:36:26;1.50;74.10
52575;DHT22;38468;48.114;-1.684;2022-12-11T00:38:27;1.40;74.40
52575;DHT22;38468;48.114;-1.684;2022-12-11T00:40:27;1.40;74.90
52575;DHT22;38468;48.114;-1.684;2022-12-11T00:42:28;1.40;74.50
52575;DHT22;38468;48.114;-1.684;2022-12-11T00:44:29;1.40;74.60
52575;DHT22;38468;48.114;-1.684;2022-12-11T00:46:29;1.40;74.70
52575;DHT22;38468;48.114;-1.684;2022-12-11T00:48:30;1.30;74.70
52575;DHT22;38468;48.114;-1.684;2022-12-11T00:50:31;1.20;75.40
52575;DHT22;38468;48.114;-1.684;2022-12-11T00:52:32;1.10;75.50
52575;DHT22;38468;48.114;-1.684;2022-12-11T00:54:34;0.90;76.80
52575;DHT22;38468;48.114;-1.684;2022-12-11T00:56:34;1.00;76.50
52575;DHT22;38468;48.114;-1.684;2022-12-11T00:58:35;1.10;76.40
52575;DHT22;38468;48.114;-1.684;2022-12-11T01:00:37;1.10;76.20
52575;DHT22;38468;48.114;-1.684;2022-12-11T01:02:37;1.00;76.50
52575;DHT22;38468;48.114;-1.684;2022-12-11T01:04:38;0.90;76.50
52575;DHT22;38468;48.114;-1.684;2022-12-11T01:06:39;0.80;77.40
52575;DHT22;38468;48.114;-1.684;2022-12-11T01:08:39;0.90;77.00
52575;DHT22;38468;48.114;-1.684;2022-12-11T01:10:40;0.90;77.00
52575;DHT22;38468;48.114;-1.684;2022-12-11T01:12:41;0.90;77.20
52575;DHT22;38468;48.114;-1.684;2022-12-11T01:14:42;1.00;76.70
52575;DHT22;38468;48.114;-1.684;2022-12-11T01:16:42;1.00;76.60
52575;DHT22;38468;48.114;-1.684;2022-12-11T01:18:43;0.90;76.90
52575;DHT22;38468;48.114;-1.684;2022-12-11T01:20:44;0.90;77.10
52575;DHT22;38468;48.114;-1.684;2022-12-11T01:22:44;0.90;77.30
52575;DHT22;38468;48.114;-1.684;2022-12-11T01:24:45;0.90;77.20
52575;DHT22;38468;48.114;-1.684;2022-12-11T01:26:46;0.90;77.70
52575;DHT22;38468;48.114;-1.684;2022-12-11T01:28:49;0.90;77.60
52575;DHT22;38468;48.114;-1.684;2022-12-11T01:30:50;0.90;77.50
52575;DHT22;38468;48.114;-1.684;2022-12-11T01:32:51;0.90;77.30
52575;DHT22;38468;48.114;-1.684;2022-12-11T01:34:51;1.10;77.20
52575;DHT22;38468;48.114;-1.684;2022-12-11T01:36:52;0.80;77.70
52575;DHT22;38468;48.114;-1.684;2022-12-11T01:38:53;0.90;77.50
52575;DHT22;38468;48.114;-1.684;2022-12-11T01:40:54;0.80;77.60
52575;DHT22;38468;48.114;-1.684;2022-12-11T01:42:54;0.90;77.60
52575;DHT22;38468;48.114;-1.684;2022-12-11T01:47:20;0.90;77.60
52575;DHT22;38468;48.114;-1.684;2022-12-11T01:49:24;0.90;77.40
52575;DHT22;38468;48.114;-1.684;2022-12-11T01:51:28;0.90;77.00
52575;DHT22;38468;48.114;-1.684;2022-12-11T01:53:39;0.90;77.20
52575;DHT22;38468;48.114;-1.684;2022-12-11T01:55:41;0.80;77.40
52575;DHT22;38468;48.114;-1.684;2022-12-11T01:57:44;0.90;77.20
52575;DHT22;38468;48.114;-1.684;2022-12-11T01:59:46;0.80;77.40
52575;DHT22;38468;48.114;-1.684;2022-12-11T02:03:50;0.80;77.70
52575;DHT22;38468;48.114;-1.684;2022-12-11T02:05:52;0.50;78.30
52575;DHT22;38468;48.114;-1.684;2022-12-11T02:07:55;0.50;78.40
52575;DHT22;38468;48.114;-1.684;2022-12-11T02:09:57;0.50;78.40
52575;DHT22;38468;48.114;-1.684;2022-12-11T02:16:48;0.70;77.90
52575;DHT22;38468;48.114;-1.684;2022-12-11T02:19:30;0.70;77.70
52575;DHT22;38468;48.114;-1.684;2022-12-11T02:21:39;0.60;77.70
52575;DHT22;38468;48.114;-1.684;2022-12-11T02:26:35;0.50;78.10
52575;DHT22;38468;48.114;-1.684;2022-12-11T02:28:45;0.50;78.30
52575;DHT22;38468;48.114;-1.684;2022-12-11T02:30:50;0.40;78.50
52575;DHT22;38468;48.114;-1.684;2022-12-11T02:32:57;0.30;78.70
52575;DHT22;38468;48.114;-1.684;2022-12-11T02:37:14;0.00;80.60
52575;DHT22;38468;48.114;-1.684;2022-12-11T02:39:17;-3276.70;80.80
52575;DHT22;38468;48.114;-1.684;2022-12-11T02:41:20;0.00;80.40
52575;DHT22;38468;48.114;-1.684;2022-12-11T02:43:22;0.10;80.10
52575;DHT22;38468;48.114;-1.684;2022-12-11T02:45:25;0.10;80.10
52575;DHT22;38468;48.114;-1.684;2022-12-11T02:47:28;0.20;79.60
52575;DHT22;38468;48.114;-1.684;2022-12-11T02:49:32;0.20;79.40
52575;DHT22;38468;48.114;-1.684;2022-12-11T02:51:37;0.10;79.40
52575;DHT22;38468;48.114;-1.684;2022-12-11T02:53:40;0.20;79.40
52575;DHT22;38468;48.114;-1.684;2022-12-11T02:55:43;0.30;79.40
52575;DHT22;38468;48.114;-1.684;2022-12-11T02:57:49;0.10;79.10
52575;DHT22;38468;48.114;-1.684;2022-12-11T02:59:50;0.10;79.40
52575;DHT22;38468;48.114;-1.684;2022-12-11T03:01:51;0.00;79.70
52575;DHT22;38468;48.114;-1.684;2022-12-11T03:03:53;0.00;79.70
52575;DHT22;38468;48.114;-1.684;2022-12-11T03:05:55;0.10;79.30
52575;DHT22;38468;48.114;-1.684;2022-12-11T03:07:55;0.20;79.50
52575;DHT22;38468;48.114;-1.684;2022-12-11T03:09:56;0.30;79.30
52575;DHT22;38468;48.114;-1.684;2022-12-11T03:11:57;0.30;79.10
52575;DHT22;38468;48.114;-1.684;2022-12-11T03:13:59;0.40;78.80
52575;DHT22;38468;48.114;-1.684;2022-12-11T03:16:28;0.40;78.70
52575;DHT22;38468;48.114;-1.684;2022-12-11T03:21:07;0.50;78.80
52575;DHT22;38468;48.114;-1.684;2022-12-11T03:23:19;0.60;78.30
52575;DHT22;38468;48.114;-1.684;2022-12-11T03:25:26;0.60;78.00
52575;DHT22;38468;48.114;-1.684;2022-12-11T03:29:55;0.50;77.90
52575;DHT22;38468;48.114;-1.684;2022-12-11T03:34:09;0.40;78.00
52575;DHT22;38468;48.114;-1.684;2022-12-11T03:36:20;0.50;78.00
52575;DHT22;38468;48.114;-1.684;2022-12-11T03:38:29;0.40;77.90
52575;DHT22;38468;48.114;-1.684;2022-12-11T03:40:32;0.40;78.10
52575;DHT22;38468;48.114;-1.684;2022-12-11T03:42:35;0.40;78.10
52575;DHT22;38468;48.114;-1.684;2022-12-11T03:44:38;0.40;78.20
52575;DHT22;38468;48.114;-1.684;2022-12-11T03:46:42;0.40;78.10
52575;DHT22;38468;48.114;-1.684;2022-12-11T03:48:45;0.40;78.10
52575;DHT22;38468;48.114;-1.684;2022-12-11T03:50:48;0.50;78.20
52575;DHT22;38468;48.114;-1.684;2022-12-11T03:52:50;0.40;78.10
52575;DHT22;38468;48.114;-1.684;2022-12-11T03:54:52;0.10;78.50
52575;DHT22;38468;48.114;-1.684;2022-12-11T03:56:57;0.00;79.70
52575;DHT22;38468;48.114;-1.684;2022-12-11T03:58:58;0.00;79.50
52575;DHT22;38468;48.114;-1.684;2022-12-11T04:00:59;0.00;80.00
52575;DHT22;38468;48.114;-1.684;2022-12-11T04:02:59;0.10;79.60
52575;DHT22;38468;48.114;-1.684;2022-12-11T04:05:12;0.20;79.20
52575;DHT22;38468;48.114;-1.684;2022-12-11T04:07:12;0.40;79.00
52575;DHT22;38468;48.114;-1.684;2022-12-11T04:09:13;0.40;78.70
52575;DHT22;38468;48.114;-1.684;2022-12-11T04:11:14;0.40;78.60
52575;DHT22;38468;48.114;-1.684;2022-12-11T04:13:33;0.30;78.50
52575;DHT22;38468;48.114;-1.684;2022-12-11T04:15:34;0.30;78.70
52575;DHT22;38468;48.114;-1.684;2022-12-11T04:17:35;0.20;78.70
52575;DHT22;38468;48.114;-1.684;2022-12-11T04:20:15;0.10;79.10
52575;DHT22;38468;48.114;-1.684;2022-12-11T04:22:34;0.00;79.90
52575;DHT22;38468;48.114;-1.684;2022-12-11T04:24:53;0.20;79.80
52575;DHT22;38468;48.114;-1.684;2022-12-11T04:26:54;0.30;79.30
52575;DHT22;38468;48.114;-1.684;2022-12-11T04:28:55;0.30;79.30
52575;DHT22;38468;48.114;-1.684;2022-12-11T04:30:55;0.30;79.20
52575;DHT22;38468;48.114;-1.684;2022-12-11T04:32:56;0.30;79.30
52575;DHT22;38468;48.114;-1.684;2022-12-11T04:34:57;0.30;79.30
52575;DHT22;38468;48.114;-1.684;2022-12-11T04:36:57;0.30;79.00
52575;DHT22;38468;48.114;-1.684;2022-12-11T04:38:58;0.20;79.30
52575;DHT22;38468;48.114;-1.684;2022-12-11T04:41:00;0.30;79.10
52575;DHT22;38468;48.114;-1.684;2022-12-11T04:43:01;0.20;79.70
52575;DHT22;38468;48.114;-1.684;2022-12-11T04:45:03;0.30;79.40
52575;DHT22;38468;48.114;-1.684;2022-12-11T04:47:04;0.20;79.30
52575;DHT22;38468;48.114;-1.684;2022-12-11T04:49:04;0.20;79.40
52575;DHT22;38468;48.114;-1.684;2022-12-11T04:51:05;0.20;79.30
52575;DHT22;38468;48.114;-1.684;2022-12-11T04:53:06;0.20;79.40
52575;DHT22;38468;48.114;-1.684;2022-12-11T04:55:07;0.10;79.60
52575;DHT22;38468;48.114;-1.684;2022-12-11T04:57:08;0.20;79.80
52575;DHT22;38468;48.114;-1.684;2022-12-11T04:59:09;0.30;79.60
52575;DHT22;38468;48.114;-1.684;2022-12-11T05:01:14;0.40;79.20
52575;DHT22;38468;48.114;-1.684;2022-12-11T05:03:15;0.30;79.10
52575;DHT22;38468;48.114;-1.684;2022-12-11T05:05:16;0.10;79.50
52575;DHT22;38468;48.114;-1.684;2022-12-11T05:07:16;0.00;79.90
52575;DHT22;38468;48.114;-1.684;2022-12-11T05:09:17;0.00;80.50
52575;DHT22;38468;48.114;-1.684;2022-12-11T05:11:18;0.00;80.60
52575;DHT22;38468;48.114;-1.684;2022-12-11T05:13:19;0.00;80.60
52575;DHT22;38468;48.114;-1.684;2022-12-11T05:15:19;0.10;80.60
52575;DHT22;38468;48.114;-1.684;2022-12-11T05:17:21;0.00;80.30
52575;DHT22;38468;48.114;-1.684;2022-12-11T05:19:22;0.00;80.40
52575;DHT22;38468;48.114;-1.684;2022-12-11T05:21:22;-3276.70;81.60
52575;DHT22;38468;48.114;-1.684;2022-12-11T05:23:23;0.00;81.10
52575;DHT22;38468;48.114;-1.684;2022-12-11T05:25:24;0.00;81.30
52575;DHT22;38468;48.114;-1.684;2022-12-11T05:27:25;0.10;80.80
52575;DHT22;38468;48.114;-1.684;2022-12-11T05:29:25;0.00;81.20
52575;DHT22;38468;48.114;-1.684;2022-12-11T05:31:26;0.00;81.20
52575;DHT22;38468;48.114;-1.684;2022-12-11T05:33:28;0.10;81.00
52575;DHT22;38468;48.114;-1.684;2022-12-11T05:35:28;0.00;81.20
52575;DHT22;38468;48.114;-1.684;2022-12-11T05:37:29;-3276.70;81.40
52575;DHT22;38468;48.114;-1.684;2022-12-11T05:39:30;-3276.70;82.00
52575;DHT22;38468;48.114;-1.684;2022-12-11T05:41:31;-3276.70;81.80
52575;DHT22;38468;48.114;-1.684;2022-12-11T05:43:34;0.00;82.10
52575;DHT22;38468;48.114;-1.684;2022-12-11T05:45:35;0.00;81.70
52575;DHT22;38468;48.114;-1.684;2022-12-11T05:47:35;0.00;81.50
52575;DHT22;38468;48.114;-1.684;2022-12-11T05:49:36;0.00;81.80
52575;DHT22;38468;48.114;-1.684;2022-12-11T05:51:37;-3276.70;82.30
52575;DHT22;38468;48.114;-1.684;2022-12-11T05:53:39;0.00;82.30
52575;DHT22;38468;48.114;-1.684;2022-12-11T05:55:40;0.10;82.00
52575;DHT22;38468;48.114;-1.684;2022-12-11T05:57:41;0.00;81.70
52575;DHT22;38468;48.114;-1.684;2022-12-11T05:59:42;0.10;81.60
52575;DHT22;38468;48.114;-1.684;2022-12-11T06:01:42;0.10;81.50
52575;DHT22;38468;48.114;-1.684;2022-12-11T06:03:43;0.20;81.50
52575;DHT22;38468;48.114;-1.684;2022-12-11T06:05:44;0.20;81.30
52575;DHT22;38468;48.114;-1.684;2022-12-11T06:07:44;0.30;81.10
52575;DHT22;38468;48.114;-1.684;2022-12-11T06:09:45;0.30;81.00
52575;DHT22;38468;48.114;-1.684;2022-12-11T06:11:46;0.40;80.60
52575;DHT22;38468;48.114;-1.684;2022-12-11T06:13:47;0.30;80.60
52575;DHT22;38468;48.114;-1.684;2022-12-11T06:15:48;0.40;80.60
52575;DHT22;38468;48.114;-1.684;2022-12-11T06:17:48;0.40;80.70
52575;DHT22;38468;48.114;-1.684;2022-12-11T06:19:49;0.40;80.40
52575;DHT22;38468;48.114;-1.684;2022-12-11T06:21:50;0.50;80.50
52575;DHT22;38468;48.114;-1.684;2022-12-11T06:23:52;0.20;80.50
52575;DHT22;38468;48.114;-1.684;2022-12-11T06:25:53;0.20;81.40
52575;DHT22;38468;48.114;-1.684;2022-12-11T06:27:53;0.30;81.30
52575;DHT22;38468;48.114;-1.684;2022-12-11T06:29:54;0.30;80.80
52575;DHT22;38468;48.114;-1.684;2022-12-11T06:31:55;0.40;80.80
52575;DHT22;38468;48.114;-1.684;2022-12-11T06:33:56;0.40;80.70
52575;DHT22;38468;48.114;-1.684;2022-12-11T06:36:03;0.50;80.60
52575;DHT22;38468;48.114;-1.684;2022-12-11T06:38:04;0.30;80.90
52575;DHT22;38468;48.114;-1.684;2022-12-11T06:40:06;0.40;80.90
52575;DHT22;38468;48.114;-1.684;2022-12-11T06:42:07;0.30;81.00
52575;DHT22;38468;48.114;-1.684;2022-12-11T06:44:08;0.40;80.90
52575;DHT22;38468;48.114;-1.684;2022-12-11T06:46:17;0.50;80.70
52575;DHT22;38468;48.114;-1.684;2022-12-11T06:48:19;0.50;80.50
52575;DHT22;38468;48.114;-1.684;2022-12-11T06:50:19;0.50;80.50
52575;DHT22;38468;48.114;-1.684;2022-12-11T06:52:21;0.60;80.40
52575;DHT22;38468;48.114;-1.684;2022-12-11T06:54:25;0.60;80.30
52575;DHT22;38468;48.114;-1.684;2022-12-11T06:56:26;0.70;80.20
52575;DHT22;38468;48.114;-1.684;2022-12-11T06:58:27;0.60;79.90
52575;DHT22;38468;48.114;-1.684;2022-12-11T07:00:28;0.60;80.00
52575;DHT22;38468;48.114;-1.684;2022-12-11T07:02:28;0.70;80.00
52575;DHT22;38468;48.114;-1.684;2022-12-11T07:04:29;0.70;79.90
52575;DHT22;38468;48.114;-1.684;2022-12-11T07:06:30;0.60;79.80
52575;DHT22;38468;48.114;-1.684;2022-12-11T07:08:30;0.60;80.10
52575;DHT22;38468;48.114;-1.684;2022-12-11T07:10:31;0.70;80.30
52575;DHT22;38468;48.114;-1.684;2022-12-11T07:12:32;0.80;80.10
52575;DHT22;38468;48.114;-1.684;2022-12-11T07:14:33;0.80;80.00
52575;DHT22;38468;48.114;-1.684;2022-12-11T07:16:34;0.80;79.80
52575;DHT22;38468;48.114;-1.684;2022-12-11T07:18:38;0.50;80.10
52575;DHT22;38468;48.114;-1.684;2022-12-11T07:20:39;0.60;80.40
52575;DHT22;38468;48.114;-1.684;2022-12-11T07:22:39;0.60;80.70
52575;DHT22;38468;48.114;-1.684;2022-12-11T07:24:40;0.80;80.50
52575;DHT22;38468;48.114;-1.684;2022-12-11T07:26:41;0.70;80.20
52575;DHT22;38468;48.114;-1.684;2022-12-11T07:28:42;0.80;80.30
52575;DHT22;38468;48.114;-1.684;2022-12-11T07:30:43;0.80;80.10
52575;DHT22;38468;48.114;-1.684;2022-12-11T07:32:43;0.90;80.10
52575;DHT22;38468;48.114;-1.684;2022-12-11T07:34:44;0.90;79.80
52575;DHT22;38468;48.114;-1.684;2022-12-11T07:36:45;0.90;79.90
52575;DHT22;38468;48.114;-1.684;2022-12-11T07:38:45;0.80;80.00
52575;DHT22;38468;48.114;-1.684;2022-12-11T07:40:46;0.90;80.30
52575;DHT22;38468;48.114;-1.684;2022-12-11T07:42:47;0.90;80.00
52575;DHT22;38468;48.114;-1.684;2022-12-11T07:44:47;0.80;79.80
52575;DHT22;38468;48.114;-1.684;2022-12-11T07:46:48;0.60;80.60
52575;DHT22;38468;48.114;-1.684;2022-12-11T07:48:49;0.40;80.90
52575;DHT22;38468;48.114;-1.684;2022-12-11T07:50:50;0.50;81.40
52575;DHT22;38468;48.114;-1.684;2022-12-11T07:52:50;0.60;80.80
52575;DHT22;38468;48.114;-1.684;2022-12-11T07:54:51;0.50;81.00
52575;DHT22;38468;48.114;-1.684;2022-12-11T07:56:52;0.40;81.70
52575;DHT22;38468;48.114;-1.684;2022-12-11T07:58:53;0.40;81.80
52575;DHT22;38468;48.114;-1.684;2022-12-11T08:00:54;0.40;82.40
52575;DHT22;38468;48.114;-1.684;2022-12-11T08:02:54;0.40;82.10
52575;DHT22;38468;48.114;-1.684;2022-12-11T08:04:55;0.30;81.90
52575;DHT22;38468;48.114;-1.684;2022-12-11T08:06:56;0.40;82.20
52575;DHT22;38468;48.114;-1.684;2022-12-11T08:08:58;0.50;82.00
52575;DHT22;38468;48.114;-1.684;2022-12-11T08:11:00;0.70;81.60
52575;DHT22;38468;48.114;-1.684;2022-12-11T08:13:01;0.70;81.40
52575;DHT22;38468;48.114;-1.684;2022-12-11T08:15:02;0.60;81.30
52575;DHT22;38468;48.114;-1.684;2022-12-11T08:17:03;0.60;81.50
52575;DHT22;38468;48.114;-1.684;2022-12-11T08:19:03;0.60;81.30
52575;DHT22;38468;48.114;-1.684;2022-12-11T08:21:09;0.60;81.70
52575;DHT22;38468;48.114;-1.684;2022-12-11T08:23:10;0.40;81.90
52575;DHT22;38468;48.114;-1.684;2022-12-11T08:25:11;0.50;81.90
52575;DHT22;38468;48.114;-1.684;2022-12-11T08:27:11;0.60;81.90
52575;DHT22;38468;48.114;-1.684;2022-12-11T08:29:12;0.70;81.50
52575;DHT22;38468;48.114;-1.684;2022-12-11T08:31:15;0.80;81.50
52575;DHT22;38468;48.114;-1.684;2022-12-11T08:33:16;0.80;81.10
52575;DHT22;38468;48.114;-1.684;2022-12-11T08:35:17;0.70;81.20
52575;DHT22;38468;48.114;-1.684;2022-12-11T08:37:17;0.50;81.70
52575;DHT22;38468;48.114;-1.684;2022-12-11T08:39:18;0.40;82.30
52575;DHT22;38468;48.114;-1.684;2022-12-11T08:41:21;0.50;82.00
52575;DHT22;38468;48.114;-1.684;2022-12-11T08:43:22;0.40;82.40
52575;DHT22;38468;48.114;-1.684;2022-12-11T08:45:23;0.50;82.10
52575;DHT22;38468;48.114;-1.684;2022-12-11T08:47:23;0.70;82.10
52575;DHT22;38468;48.114;-1.684;2022-12-11T08:49:24;0.70;81.60
52575;DHT22;38468;48.114;-1.684;2022-12-11T08:51:27;0.70;81.50
52575;DHT22;38468;48.114;-1.684;2022-12-11T08:53:29;0.50;81.50
52575;DHT22;38468;48.114;-1.684;2022-12-11T08:55:31;0.60;82.20
52575;DHT22;38468;48.114;-1.684;2022-12-11T08:57:32;0.80;82.00
52575;DHT22;38468;48.114;-1.684;2022-12-11T08:59:32;0.70;81.40
52575;DHT22;38468;48.114;-1.684;2022-12-11T09:01:33;0.60;81.60
52575;DHT22;38468;48.114;-1.684;2022-12-11T09:03:35;0.80;81.40
52575;DHT22;38468;48.114;-1.684;2022-12-11T09:05:37;0.80;81.40
52575;DHT22;38468;48.114;-1.684;2022-12-11T09:07:38;0.80;81.30
52575;DHT22;38468;48.114;-1.684;2022-12-11T09:09:38;0.70;81.50
52575;DHT22;38468;48.114;-1.684;2022-12-11T09:11:40;0.80;81.30
52575;DHT22;38468;48.114;-1.684;2022-12-11T09:13:41;0.80;81.50
52575;DHT22;38468;48.114;-1.684;2022-12-11T09:15:41;1.00;81.60
52575;DHT22;38468;48.114;-1.684;2022-12-11T09:17:42;1.00;81.10
52575;DHT22;38468;48.114;-1.684;2022-12-11T09:19:43;1.10;80.70
52575;DHT22;38468;48.114;-1.684;2022-12-11T09:21:44;0.90;80.70
52575;DHT22;38468;48.114;-1.684;2022-12-11T09:23:45;0.90;80.90
52575;DHT22;38468;48.114;-1.684;2022-12-11T09:25:45;0.80;81.50
52575;DHT22;38468;48.114;-1.684;2022-12-11T09:27:46;0.70;81.70
52575;DHT22;38468;48.114;-1.684;2022-12-11T09:29:47;0.70;81.50
52575;DHT22;38468;48.114;-1.684;2022-12-11T09:31:47;0.80;81.70
52575;DHT22;38468;48.114;-1.684;2022-12-11T09:33:50;1.00;81.40
52575;DHT22;38468;48.114;-1.684;2022-12-11T09:36:01;1.10;81.10
52575;DHT22;38468;48.114;-1.684;2022-12-11T09:38:02;1.30;80.70
52575;DHT22;38468;48.114;-1.684;2022-12-11T09:40:03;1.30;80.20
52575;DHT22;38468;48.114;-1.684;2022-12-11T09:42:41;1.40;80.30
52575;DHT22;38468;48.114;-1.684;2022-12-11T09:44:50;1.10;79.90
52575;DHT22;38468;48.114;-1.684;2022-12-11T09:46:52;1.10;80.60
52575;DHT22;38468;48.114;-1.684;2022-12-11T09:48:53;1.00;80.60
52575;DHT22;38468;48.114;-1.684;2022-12-11T09:50:54;1.00;80.80
52575;DHT22;38468;48.114;-1.684;2022-12-11T09:55:05;1.30;80.60
52575;DHT22;38468;48.114;-1.684;2022-12-11T09:57:24;1.40;80.40
52575;DHT22;38468;48.114;-1.684;2022-12-11T09:59:55;1.60;80.10
52575;DHT22;38468;48.114;-1.684;2022-12-11T10:09:21;1.80;78.80
52575;DHT22;38468;48.114;-1.684;2022-12-11T10:16:08;2.00;77.20
52575;DHT22;38468;48.114;-1.684;2022-12-11T10:18:18;1.80;78.40
52575;DHT22;38468;48.114;-1.684;2022-12-11T10:20:32;1.70;78.80
52575;DHT22;38468;48.114;-1.684;2022-12-11T10:22:35;1.80;78.90
52575;DHT22;38468;48.114;-1.684;2022-12-11T10:24:44;1.90;78.80
52575;DHT22;38468;48.114;-1.684;2022-12-11T10:26:55;1.60;79.10
52575;DHT22;38468;48.114;-1.684;2022-12-11T10:28:59;1.70;79.60
52575;DHT22;38468;48.114;-1.684;2022-12-11T10:31:18;1.70;79.10
52575;DHT22;38468;48.114;-1.684;2022-12-11T10:33:26;1.70;79.30
52575;DHT22;38468;48.114;-1.684;2022-12-11T10:35:34;1.80;79.20
52575;DHT22;38468;48.114;-1.684;2022-12-11T10:37:36;1.90;78.90
52575;DHT22;38468;48.114;-1.684;2022-12-11T10:39:36;2.00;79.20
52575;DHT22;38468;48.114;-1.684;2022-12-11T10:41:39;2.40;78.90
52575;DHT22;38468;48.114;-1.684;2022-12-11T10:43:43;2.80;78.00
52575;DHT22;38468;48.114;-1.684;2022-12-11T10:45:54;2.50;77.10
52575;DHT22;38468;48.114;-1.684;2022-12-11T10:48:08;2.80;77.40
52575;DHT22;38468;48.114;-1.684;2022-12-11T10:50:22;2.50;76.60
52575;DHT22;38468;48.114;-1.684;2022-12-11T10:52:24;2.50;77.00
52575;DHT22;38468;48.114;-1.684;2022-12-11T10:54:36;2.40;76.80
52575;DHT22;38468;48.114;-1.684;2022-12-11T10:56:37;1.90;78.30
52575;DHT22;38468;48.114;-1.684;2022-12-11T10:58:47;1.80;78.60
52575;DHT22;38468;48.114;-1.684;2022-12-11T11:01:02;1.90;78.70
52575;DHT22;38468;48.114;-1.684;2022-12-11T11:03:16;1.90;79.10
52575;DHT22;38468;48.114;-1.684;2022-12-11T11:05:37;2.30;78.70
52575;DHT22;38468;48.114;-1.684;2022-12-11T11:07:38;2.20;78.10
52575;DHT22;38468;48.114;-1.684;2022-12-11T11:09:39;2.10;77.80
52575;DHT22;38468;48.114;-1.684;2022-12-11T11:11:49;2.10;78.10
52575;DHT22;38468;48.114;-1.684;2022-12-11T11:13:51;2.10;78.30
52575;DHT22;38468;48.114;-1.684;2022-12-11T11:16:04;2.20;78.20
52575;DHT22;38468;48.114;-1.684;2022-12-11T11:18:11;2.40;78.00
52575;DHT22;38468;48.114;-1.684;2022-12-11T11:20:18;2.50;77.50
52575;DHT22;38468;48.114;-1.684;2022-12-11T11:22:20;2.70;77.30
52575;DHT22;38468;48.114;-1.684;2022-12-11T11:24:43;2.60;76.70
52575;DHT22;38468;48.114;-1.684;2022-12-11T11:26:44;2.60;77.40
52575;DHT22;38468;48.114;-1.684;2022-12-11T11:28:52;2.50;76.80
52575;DHT22;38468;48.114;-1.684;2022-12-11T11:31:14;2.60;77.30
52575;DHT22;38468;48.114;-1.684;2022-12-11T11:33:20;2.60;76.60
52575;DHT22;38468;48.114;-1.684;2022-12-11T11:35:24;2.40;77.10
52575;DHT22;38468;48.114;-1.684;2022-12-11T11:37:33;2.20;77.60
52575;DHT22;38468;48.114;-1.684;2022-12-11T11:39:37;2.10;78.60
52575;DHT22;38468;48.114;-1.684;2022-12-11T11:42:12;2.30;78.20
52575;DHT22;38468;48.114;-1.684;2022-12-11T11:44:26;2.40;77.30
52575;DHT22;38468;48.114;-1.684;2022-12-11T11:46:45;2.30;77.90
52575;DHT22;38468;48.114;-1.684;2022-12-11T11:51:31;2.30;78.60
52575;DHT22;38468;48.114;-1.684;2022-12-11T11:53:37;2.30;78.30
52575;DHT22;38468;48.114;-1.684;2022-12-11T11:58:14;2.50;78.00
52575;DHT22;38468;48.114;-1.684;2022-12-11T12:00:22;2.40;77.70
52575;DHT22;38468;48.114;-1.684;2022-12-11T12:02:23;2.40;77.90
52575;DHT22;38468;48.114;-1.684;2022-12-11T12:04:26;2.60;77.90
52575;DHT22;38468;48.114;-1.684;2022-12-11T12:21:04;2.80;77.10
52575;DHT22;38468;48.114;-1.684;2022-12-11T12:25:54;3.00;76.20
52575;DHT22;38468;48.114;-1.684;2022-12-11T12:28:15;2.90;76.70
52575;DHT22;38468;48.114;-1.684;2022-12-11T12:30:20;2.90;76.20
52575;DHT22;38468;48.114;-1.684;2022-12-11T12:32:38;2.80;76.90
52575;DHT22;38468;48.114;-1.684;2022-12-11T12:42:01;3.30;76.60
52575;DHT22;38468;48.114;-1.684;2022-12-11T12:44:15;3.40;75.80
52575;DHT22;38468;48.114;-1.684;2022-12-11T12:48:29;3.60;75.90
52575;DHT22;38468;48.114;-1.684;2022-12-11T12:50:37;3.70;75.50
52575;DHT22;38468;48.114;-1.684;2022-12-11T12:52:40;3.70;75.20
52575;DHT22;38468;48.114;-1.684;2022-12-11T12:54:44;3.80;74.60
52575;DHT22;38468;48.114;-1.684;2022-12-11T12:57:05;3.90;74.90
52575;DHT22;38468;48.114;-1.684;2022-12-11T12:59:21;3.90;74.20
52575;DHT22;38468;48.114;-1.684;2022-12-11T13:01:26;4.00;74.90
52575;DHT22;38468;48.114;-1.684;2022-12-11T13:03:31;3.90;73.90
52575;DHT22;38468;48.114;-1.684;2022-12-11T13:05:35;3.90;74.90
52575;DHT22;38468;48.114;-1.684;2022-12-11T13:07:36;3.90;74.30
52575;DHT22;38468;48.114;-1.684;2022-12-11T13:09:37;3.60;74.70
52575;DHT22;38468;48.114;-1.684;2022-12-11T13:11:38;3.70;74.80
52575;DHT22;38468;48.114;-1.684;2022-12-11T13:18:37;3.30;76.10
52575;DHT22;38468;48.114;-1.684;2022-12-11T13:20:47;3.40;76.40
52575;DHT22;38468;48.114;-1.684;2022-12-11T13:23:06;3.70;76.00
52575;DHT22;38468;48.114;-1.684;2022-12-11T13:25:50;3.80;75.40
52575;DHT22;38468;48.114;-1.684;2022-12-11T13:27:51;4.10;75.30
52575;DHT22;38468;48.114;-1.684;2022-12-11T13:30:04;4.00;73.90
52575;DHT22;38468;48.114;-1.684;2022-12-11T13:34:16;4.10;75.30
52575;DHT22;38468;48.114;-1.684;2022-12-11T13:36:34;4.10;74.70
52575;DHT22;38468;48.114;-1.684;2022-12-11T13:38:49;4.00;74.90
52575;DHT22;38468;48.114;-1.684;2022-12-11T13:40:55;3.90;74.60
52575;DHT22;38468;48.114;-1.684;2022-12-11T13:43:02;3.90;75.20
52575;DHT22;38468;48.114;-1.684;2022-12-11T13:45:05;3.80;75.40
52575;DHT22;38468;48.114;-1.684;2022-12-11T13:47:13;3.80;75.60
52575;DHT22;38468;48.114;-1.684;2022-12-11T13:49:35;3.90;74.90
52575;DHT22;38468;48.114;-1.684;2022-12-11T13:51:36;3.90;75.70
52575;DHT22;38468;48.114;-1.684;2022-12-11T13:53:37;3.90;75.40
52575;DHT22;38468;48.114;-1.684;2022-12-11T13:55:37;3.90;75.30
52575;DHT22;38468;48.114;-1.684;2022-12-11T13:57:45;3.70;75.10
52575;DHT22;38468;48.114;-1.684;2022-12-11T13:59:53;3.60;75.50
52575;DHT22;38468;48.114;-1.684;2022-12-11T14:01:57;3.60;76.00
52575;DHT22;38468;48.114;-1.684;2022-12-11T14:04:10;3.80;76.00
52575;DHT22;38468;48.114;-1.684;2022-12-11T14:06:14;4.00;75.50
52575;DHT22;38468;48.114;-1.684;2022-12-11T14:08:21;4.10;75.10
52575;DHT22;38468;48.114;-1.684;2022-12-11T14:10:25;4.00;74.60
52575;DHT22;38468;48.114;-1.684;2022-12-11T14:12:26;3.90;75.60
52575;DHT22;38468;48.114;-1.684;2022-12-11T14:14:49;4.00;75.30
52575;DHT22;38468;48.114;-1.684;2022-12-11T14:16:51;4.00;75.20
52575;DHT22;38468;48.114;-1.684;2022-12-11T14:18:53;4.10;75.10